sensor_id;sensor_type;location;lat;lon;timestamp;temperature;humidity
29725;DHT22;16636;48.394;15.468;2023-04-16T00:01:01;6.20;99.90
29725;DHT22;16636;48.394;15.468;2023-04-16T00:03:27;6.30;99.90
29725;DHT22;16636;48.394;15.468;2023-04-16T00:05:53;6.30;99.90
29725;DHT22;16636;48.394;15.468;2023-04-16T00:08:21;6.30;99.90
29725;DHT22;16636;48.394;15.468;2023-04-16T00:10:49;6.30;99.90
29725;DHT22;16636;48.394;15.468;2023-04-16T00:13:15;6.30;99.90
29725;DHT22;16636;48.394;15.468;2023-04-16T00:15:41;6.20;99.90
29725;DHT22;16636;48.394;15.468;2023-04-16T00:18:07;6.20;99.90
29725;DHT22;16636;48.394;15.468;2023-04-16T00:20:33;6.20;99.90
29725;DHT22;16636;48.394;15.468;2023-04-16T00:22:58;6.20;99.90
29725;DHT22;16636;48.394;15.468;2023-04-16T00:25:24;6.20;99.90
29725;DHT22;16636;48.394;15.468;2023-04-16T00:27:50;6.20;99.90
29725;DHT22;16636;48.394;15.468;2023-04-16T00:30:16;6.20;99.90
29725;DHT22;16636;48.394;15.468;2023-04-16T00:32:42;6.20;99.90
29725;DHT22;16636;48.394;15.468;2023-04-16T00:35:08;6.20;99.90
29725;DHT22;16636;48.394;15.468;2023-04-16T00:37:34;6.20;99.90
29725;DHT22;16636;48.394;15.468;2023-04-16T00:40:00;6.20;99.90
29725;DHT22;16636;48.394;15.468;2023-04-16T00:42:26;6.20;99.90
29725;DHT22;16636;48.394;15.468;2023-04-16T00:44:52;6.20;99.90
29725;DHT22;16636;48.394;15.468;2023-04-16T00:47:18;6.20;99.90
29725;DHT22;16636;48.394;15.468;2023-04-16T00:49:44;6.20;99.90
29725;DHT22;16636;48.394;15.468;2023-04-16T00:52:11;6.20;99.90
29725;DHT22;16636;48.394;15.468;2023-04-16T00:54:37;6.20;99.90
29725;DHT22;16636;48.394;15.468;2023-04-16T00:57:03;6.20;99.90
29725;DHT22;16636;48.394;15.468;2023-04-16T00:59:29;6.20;99.90
29725;DHT22;16636;48.394;15.468;2023-04-16T01:01:55;6.20;99.90
29725;DHT22;16636;48.394;15.468;2023-04-16T01:04:21;6.20;99.90
29725;DHT22;16636;48.394;15.468;2023-04-16T01:06:47;6.20;99.90
29725;DHT22;16636;48.394;15.468;2023-04-16T01:09:13;6.20;99.90
29725;DHT22;16636;48.394;15.468;2023-04-16T01:11:39;6.20;99.90
29725;DHT22;16636;48.394;15.468;2023-04-16T01:14:05;6.20;99.90
29725;DHT22;16636;48.394;15.468;2023-04-16T01:16:31;6.20;99.90
29725;DHT22;16636;48.394;15.468;2023-04-16T01:18:57;6.10;99.90
29725;DHT22;16636;48.394;15.468;2023-04-16T01:21:23;6.20;99.90
29725;DHT22;16636;48.394;15.468;2023-04-16T01:23:50;6.20;99.90
29725;DHT22;16636;48.394;15.468;2023-04-16T01:26:16;6.10;99.90
29725;DHT22;16636;48.394;15.468;2023-04-16T01:28:42;6.10;99.90
29725;DHT22;16636;48.394;15.468;2023-04-16T01:31:07;6.10;99.90
29725;DHT22;16636;48.394;15.468;2023-04-16T01:33:49;6.10;99.90
29725;DHT22;16636;48.394;15.468;2023-04-16T01:36:15;6.10;99.90
29725;DHT22;16636;48.394;15.468;2023-04-16T01:38:41;6.10;99.90
29725;DHT22;16636;48.394;15.468;2023-04-16T01:41:06;6.20;99.90
29725;DHT22;16636;48.394;15.468;2023-04-16T01:43:33;6.20;99.90
29725;DHT22;16636;48.394;15.468;2023-04-16T01:46:33;6.10;99.90
29725;DHT22;16636;48.394;15.468;2023-04-16T01:48:52;6.10;99.90
29725;DHT22;16636;48.394;15.468;2023-04-16T01:51:21;6.10;99.90
29725;DHT22;16636;48.394;15.468;2023-04-16T01:53:47;6.10;99.90
29725;DHT22;16636;48.394;15.468;2023-04-16T01:56:13;6.10;99.90
29725;DHT22;16636;48.394;15.468;2023-04-16T01:58:40;6.10;99.90
29725;DHT22;16636;48.394;15.468;2023-04-16T02:01:08;6.10;99.90
29725;DHT22;16636;48.394;15.468;2023-04-16T02:03:34;6.10;99.90
29725;DHT22;16636;48.394;15.468;2023-04-16T02:06:02;6.10;99.90
29725;DHT22;16636;48.394;15.468;2023-04-16T02:08:28;6.10;99.90
29725;DHT22;16636;48.394;15.468;2023-04-16T02:10:54;6.10;99.90
29725;DHT22;16636;48.394;15.468;2023-04-16T02:13:22;6.10;99.90
29725;DHT22;16636;48.394;15.468;2023-04-16T02:15:50;6.10;99.90
29725;DHT22;16636;48.394;15.468;2023-04-16T02:18:22;6.10;99.90
29725;DHT22;16636;48.394;15.468;2023-04-16T02:20:48;6.10;99.90
29725;DHT22;16636;48.394;15.468;2023-04-16T02:23:14;6.10;99.90
29725;DHT22;16636;48.394;15.468;2023-04-16T02:25:41;6.10;99.90
29725;DHT22;16636;48.394;15.468;2023-04-16T02:28:09;6.10;99.90
29725;DHT22;16636;48.394;15.468;2023-04-16T02:30:39;6.10;99.90
29725;DHT22;16636;48.394;15.468;2023-04-16T02:33:06;6.10;99.90
29725;DHT22;16636;48.394;15.468;2023-04-16T02:35:33;6.10;99.90
29725;DHT22;16636;48.394;15.468;2023-04-16T02:38:00;6.10;99.90
29725;DHT22;16636;48.394;15.468;2023-04-16T02:40:26;6.10;99.90
29725;DHT22;16636;48.394;15.468;2023-04-16T02:42:52;6.10;99.90
29725;DHT22;16636;48.394;15.468;2023-04-16T02:45:19;6.10;99.90
29725;DHT22;16636;48.394;15.468;2023-04-16T02:47:45;6.10;99.90
29725;DHT22;16636;48.394;15.468;2023-04-16T02:50:11;6.10;99.90
29725;DHT22;16636;48.394;15.468;2023-04-16T02:52:37;6.10;99.90
29725;DHT22;16636;48.394;15.468;2023-04-16T02:55:03;6.10;99.90
29725;DHT22;16636;48.394;15.468;2023-04-16T02:57:29;6.10;99.90
29725;DHT22;16636;48.394;15.468;2023-04-16T02:59:55;6.10;99.90
29725;DHT22;16636;48.394;15.468;2023-04-16T03:02:21;6.10;99.90
29725;DHT22;16636;48.394;15.468;2023-04-16T03:04:47;6.10;99.90
29725;DHT22;16636;48.394;15.468;2023-04-16T03:07:13;6.10;99.90
29725;DHT22;16636;48.394;15.468;2023-04-16T03:09:39;6.10;99.90
29725;DHT22;16636;48.394;15.468;2023-04-16T03:12:05;6.10;99.90
29725;DHT22;16636;48.394;15.468;2023-04-16T03:14:30;6.10;99.90
29725;DHT22;16636;48.394;15.468;2023-04-16T03:16:57;6.10;99.90
29725;DHT22;16636;48.394;15.468;2023-04-16T03:19:23;6.10;99.90
29725;DHT22;16636;48.394;15.468;2023-04-16T03:21:48;6.10;99.90
29725;DHT22;16636;48.394;15.468;2023-04-16T03:24:16;6.00;99.90
29725;DHT22;16636;48.394;15.468;2023-04-16T03:26:42;6.10;99.90
29725;DHT22;16636;48.394;15.468;2023-04-16T03:29:09;6.00;99.90
29725;DHT22;16636;48.394;15.468;2023-04-16T03:31:35;6.10;99.90
29725;DHT22;16636;48.394;15.468;2023-04-16T03:34:01;6.10;99.90
29725;DHT22;16636;48.394;15.468;2023-04-16T03:36:26;6.10;99.90
29725;DHT22;16636;48.394;15.468;2023-04-16T03:38:53;6.10;99.90
29725;DHT22;16636;48.394;15.468;2023-04-16T03:41:19;6.10;99.90
29725;DHT22;16636;48.394;15.468;2023-04-16T03:43:45;6.00;99.90
29725;DHT22;16636;48.394;15.468;2023-04-16T03:46:11;6.00;99.90
29725;DHT22;16636;48.394;15.468;2023-04-16T03:48:37;6.00;99.90
29725;DHT22;16636;48.394;15.468;2023-04-16T03:51:03;6.00;99.90
29725;DHT22;16636;48.394;15.468;2023-04-16T03:53:28;6.00;99.90
29725;DHT22;16636;48.394;15.468;2023-04-16T03:55:54;6.00;99.90
29725;DHT22;16636;48.394;15.468;2023-04-16T03:58:21;6.00;99.90
29725;DHT22;16636;48.394;15.468;2023-04-16T04:00:47;6.00;99.90
29725;DHT22;16636;48.394;15.468;2023-04-16T04:03:14;5.90;99.90
29725;DHT22;16636;48.394;15.468;2023-04-16T04:05:44;5.90;99.90
29725;DHT22;16636;48.394;15.468;2023-04-16T04:08:12;5.90;99.90
29725;DHT22;16636;48.394;15.468;2023-04-16T04:10:39;5.90;99.90
29725;DHT22;16636;48.394;15.468;2023-04-16T04:13:06;5.90;99.90
29725;DHT22;16636;48.394;15.468;2023-04-16T04:15:33;5.90;99.90
29725;DHT22;16636;48.394;15.468;2023-04-16T04:17:59;5.90;99.90
29725;DHT22;16636;48.394;15.468;2023-04-16T04:20:25;5.90;99.90
29725;DHT22;16636;48.394;15.468;2023-04-16T04:22:52;6.00;99.90
29725;DHT22;16636;48.394;15.468;2023-04-16T04:25:20;6.00;99.90
29725;DHT22;16636;48.394;15.468;2023-04-16T04:27:46;5.90;99.90
29725;DHT22;16636;48.394;15.468;2023-04-16T04:30:12;6.00;99.90
29725;DHT22;16636;48.394;15.468;2023-04-16T04:32:39;6.00;99.90
29725;DHT22;16636;48.394;15.468;2023-04-16T04:35:06;6.00;99.90
29725;DHT22;16636;48.394;15.468;2023-04-16T04:37:32;6.00;99.90
29725;DHT22;16636;48.394;15.468;2023-04-16T04:39:58;6.00;99.90
29725;DHT22;16636;48.394;15.468;2023-04-16T04:42:24;6.00;99.90
29725;DHT22;16636;48.394;15.468;2023-04-16T04:44:50;6.00;99.90
29725;DHT22;16636;48.394;15.468;2023-04-16T04:47:16;6.00;99.90
29725;DHT22;16636;48.394;15.468;2023-04-16T04:49:42;6.00;99.90
29725;DHT22;16636;48.394;15.468;2023-04-16T04:52:08;5.90;99.90
29725;DHT22;16636;48.394;15.468;2023-04-16T04:54:33;5.90;99.90
29725;DHT22;16636;48.394;15.468;2023-04-16T04:56:59;6.00;99.90
29725;DHT22;16636;48.394;15.468;2023-04-16T04:59:27;6.00;99.90
29725;DHT22;16636;48.394;15.468;2023-04-16T05:01:53;6.00;99.90
29725;DHT22;16636;48.394;15.468;2023-04-16T05:04:19;6.00;99.90
29725;DHT22;16636;48.394;15.468;2023-04-16T05:06:45;6.00;99.90
29725;DHT22;16636;48.394;15.468;2023-04-16T05:09:11;6.10;99.90
29725;DHT22;16636;48.394;15.468;2023-04-16T05:11:37;6.10;99.90
29725;DHT22;16636;48.394;15.468;2023-04-16T05:14:03;6.10;99.90
29725;DHT22;16636;48.394;15.468;2023-04-16T05:16:29;6.10;99.90
29725;DHT22;16636;48.394;15.468;2023-04-16T05:18:55;6.20;99.90
29725;DHT22;16636;48.394;15.468;2023-04-16T05:21:22;6.20;99.90
29725;DHT22;16636;48.394;15.468;2023-04-16T05:23:48;6.30;99.90
29725;DHT22;16636;48.394;15.468;2023-04-16T05:26:14;6.20;99.90
29725;DHT22;16636;48.394;15.468;2023-04-16T05:28:40;6.30;99.90
29725;DHT22;16636;48.394;15.468;2023-04-16T05:31:06;6.30;99.90
29725;DHT22;16636;48.394;15.468;2023-04-16T05:33:31;6.30;99.90
29725;DHT22;16636;48.394;15.468;2023-04-16T05:35:57;6.30;99.90
29725;DHT22;16636;48.394;15.468;2023-04-16T05:38:23;6.30;99.90
29725;DHT22;16636;48.394;15.468;2023-04-16T05:40:49;6.30;99.90
29725;DHT22;16636;48.394;15.468;2023-04-16T05:43:16;6.40;99.90
29725;DHT22;16636;48.394;15.468;2023-04-16T05:45:41;6.40;99.90
29725;DHT22;16636;48.394;15.468;2023-04-16T05:48:07;6.40;99.90
29725;DHT22;16636;48.394;15.468;2023-04-16T05:50:34;6.40;99.90
29725;DHT22;16636;48.394;15.468;2023-04-16T05:53:00;6.50;99.90
29725;DHT22;16636;48.394;15.468;2023-04-16T05:55:26;6.50;99.90
29725;DHT22;16636;48.394;15.468;2023-04-16T05:57:52;6.50;99.90
29725;DHT22;16636;48.394;15.468;2023-04-16T06:00:18;6.50;99.90
29725;DHT22;16636;48.394;15.468;2023-04-16T06:02:44;6.50;99.90
29725;DHT22;16636;48.394;15.468;2023-04-16T06:05:10;6.50;99.90
29725;DHT22;16636;48.394;15.468;2023-04-16T06:07:36;6.60;99.90
29725;DHT22;16636;48.394;15.468;2023-04-16T06:10:01;6.50;99.90
29725;DHT22;16636;48.394;15.468;2023-04-16T06:12:27;6.60;99.90
29725;DHT22;16636;48.394;15.468;2023-04-16T06:14:53;6.60;99.90
29725;DHT22;16636;48.394;15.468;2023-04-16T06:17:19;6.70;99.90
29725;DHT22;16636;48.394;15.468;2023-04-16T06:19:45;6.70;99.90
29725;DHT22;16636;48.394;15.468;2023-04-16T06:22:11;6.60;99.90
29725;DHT22;16636;48.394;15.468;2023-04-16T06:24:37;6.70;99.90
29725;DHT22;16636;48.394;15.468;2023-04-16T06:27:03;6.70;99.90
29725;DHT22;16636;48.394;15.468;2023-04-16T06:29:29;6.70;99.90
29725;DHT22;16636;48.394;15.468;2023-04-16T06:31:55;6.70;99.90
29725;DHT22;16636;48.394;15.468;2023-04-16T06:34:20;6.70;99.90
29725;DHT22;16636;48.394;15.468;2023-04-16T06:36:46;6.80;99.90
29725;DHT22;16636;48.394;15.468;2023-04-16T06:39:12;6.70;99.90
29725;DHT22;16636;48.394;15.468;2023-04-16T06:41:38;6.80;99.90
29725;DHT22;16636;48.394;15.468;2023-04-16T06:44:04;6.80;99.90
29725;DHT22;16636;48.394;15.468;2023-04-16T06:46:30;6.80;99.90
29725;DHT22;16636;48.394;15.468;2023-04-16T06:48:56;6.80;99.90
29725;DHT22;16636;48.394;15.468;2023-04-16T06:51:21;6.90;99.90
29725;DHT22;16636;48.394;15.468;2023-04-16T06:53:47;6.90;99.90
29725;DHT22;16636;48.394;15.468;2023-04-16T06:56:13;6.90;99.90
29725;DHT22;16636;48.394;15.468;2023-04-16T06:58:39;6.90;99.90
29725;DHT22;16636;48.394;15.468;2023-04-16T07:01:05;6.90;99.90
29725;DHT22;16636;48.394;15.468;2023-04-16T07:03:31;7.00;99.90
29725;DHT22;16636;48.394;15.468;2023-04-16T07:05:57;7.00;99.90
29725;DHT22;16636;48.394;15.468;2023-04-16T07:08:23;7.00;99.90
29725;DHT22;16636;48.394;15.468;2023-04-16T07:10:49;7.00;99.90
29725;DHT22;16636;48.394;15.468;2023-04-16T07:13:15;7.00;99.90
29725;DHT22;16636;48.394;15.468;2023-04-16T07:15:43;7.10;99.90
29725;DHT22;16636;48.394;15.468;2023-04-16T07:18:08;7.10;99.90
29725;DHT22;16636;48.394;15.468;2023-04-16T07:20:34;7.10;99.90
29725;DHT22;16636;48.394;15.468;2023-04-16T07:23:01;7.10;99.90
29725;DHT22;16636;48.394;15.468;2023-04-16T07:25:26;7.10;99.90
29725;DHT22;16636;48.394;15.468;2023-04-16T07:27:52;7.20;99.90
29725;DHT22;16636;48.394;15.468;2023-04-16T07:30:18;7.20;99.90
29725;DHT22;16636;48.394;15.468;2023-04-16T07:32:44;7.20;99.90
29725;DHT22;16636;48.394;15.468;2023-04-16T07:35:10;7.30;99.90
29725;DHT22;16636;48.394;15.468;2023-04-16T07:37:36;7.30;99.90
29725;DHT22;16636;48.394;15.468;2023-04-16T07:40:01;7.20;99.90
29725;DHT22;16636;48.394;15.468;2023-04-16T07:42:28;7.20;99.90
29725;DHT22;16636;48.394;15.468;2023-04-16T07:44:54;7.20;99.90
29725;DHT22;16636;48.394;15.468;2023-04-16T07:47:20;7.20;99.90
29725;DHT22;16636;48.394;15.468;2023-04-16T07:49:47;7.20;99.90
29725;DHT22;16636;48.394;15.468;2023-04-16T07:52:14;7.20;99.90
29725;DHT22;16636;48.394;15.468;2023-04-16T07:54:40;7.20;99.90
29725;DHT22;16636;48.394;15.468;2023-04-16T07:57:06;7.20;99.90
29725;DHT22;16636;48.394;15.468;2023-04-16T07:59:31;7.20;99.90
29725;DHT22;16636;48.394;15.468;2023-04-16T08:01:57;7.20;99.90
29725;DHT22;16636;48.394;15.468;2023-04-16T08:04:23;7.20;99.90
29725;DHT22;16636;48.394;15.468;2023-04-16T08:06:49;7.20;99.90
29725;DHT22;16636;48.394;15.468;2023-04-16T08:09:16;7.20;99.90
29725;DHT22;16636;48.394;15.468;2023-04-16T08:11:41;7.20;99.90
29725;DHT22;16636;48.394;15.468;2023-04-16T08:14:07;7.20;99.90
29725;DHT22;16636;48.394;15.468;2023-04-16T08:16:33;7.20;99.90
29725;DHT22;16636;48.394;15.468;2023-04-16T08:18:59;7.20;99.90
29725;DHT22;16636;48.394;15.468;2023-04-16T08:21:26;7.20;99.90
29725;DHT22;16636;48.394;15.468;2023-04-16T08:23:52;7.30;99.90
29725;DHT22;16636;48.394;15.468;2023-04-16T08:26:18;7.30;99.90
29725;DHT22;16636;48.394;15.468;2023-04-16T08:28:44;7.30;99.90
29725;DHT22;16636;48.394;15.468;2023-04-16T08:31:10;7.30;99.90
29725;DHT22;16636;48.394;15.468;2023-04-16T08:33:36;7.30;99.90
29725;DHT22;16636;48.394;15.468;2023-04-16T08:36:02;7.40;99.90
29725;DHT22;16636;48.394;15.468;2023-04-16T08:38:28;7.40;99.90
29725;DHT22;16636;48.394;15.468;2023-04-16T08:40:54;7.40;99.90
29725;DHT22;16636;48.394;15.468;2023-04-16T08:43:21;7.40;99.90
29725;DHT22;16636;48.394;15.468;2023-04-16T08:45:48;7.50;99.90
29725;DHT22;16636;48.394;15.468;2023-04-16T08:48:14;7.50;99.90
29725;DHT22;16636;48.394;15.468;2023-04-16T08:50:40;7.50;99.90
29725;DHT22;16636;48.394;15.468;2023-04-16T08:53:06;7.50;99.90
29725;DHT22;16636;48.394;15.468;2023-04-16T08:55:36;7.50;99.90
29725;DHT22;16636;48.394;15.468;2023-04-16T08:58:05;7.50;99.90
29725;DHT22;16636;48.394;15.468;2023-04-16T09:00:32;7.50;99.90
29725;DHT22;16636;48.394;15.468;2023-04-16T09:02:59;7.50;99.90
29725;DHT22;16636;48.394;15.468;2023-04-16T09:05:25;7.50;99.90
29725;DHT22;16636;48.394;15.468;2023-04-16T09:07:52;7.50;99.90
29725;DHT22;16636;48.394;15.468;2023-04-16T09:10:19;7.50;99.90
29725;DHT22;16636;48.394;15.468;2023-04-16T09:12:45;7.50;99.90
29725;DHT22;16636;48.394;15.468;2023-04-16T09:15:11;7.50;99.90
29725;DHT22;16636;48.394;15.468;2023-04-16T09:17:37;7.50;99.90
29725;DHT22;16636;48.394;15.468;2023-04-16T09:20:04;7.40;99.90
29725;DHT22;16636;48.394;15.468;2023-04-16T09:22:30;7.50;99.90
29725;DHT22;16636;48.394;15.468;2023-04-16T09:24:57;7.60;99.90
29725;DHT22;16636;48.394;15.468;2023-04-16T09:27:22;7.60;99.90
29725;DHT22;16636;48.394;15.468;2023-04-16T09:29:48;7.60;99.90
29725;DHT22;16636;48.394;15.468;2023-04-16T09:32:14;7.70;99.90
29725;DHT22;16636;48.394;15.468;2023-04-16T09:37:18;7.80;99.90
29725;DHT22;16636;48.394;15.468;2023-04-16T09:39:44;7.90;99.90
29725;DHT22;16636;48.394;15.468;2023-04-16T09:42:20;8.00;99.90
29725;DHT22;16636;48.394;15.468;2023-04-16T09:44:48;8.10;99.90
29725;DHT22;16636;48.394;15.468;2023-04-16T09:47:13;8.10;99.90
29725;DHT22;16636;48.394;15.468;2023-04-16T09:49:40;8.20;99.90
29725;DHT22;16636;48.394;15.468;2023-04-16T09:52:13;8.30;99.90
29725;DHT22;16636;48.394;15.468;2023-04-16T09:54:49;8.40;99.90
29725;DHT22;16636;48.394;15.468;2023-04-16T09:57:19;8.70;99.90
29725;DHT22;16636;48.394;15.468;2023-04-16T09:59:45;9.10;99.90
29725;DHT22;16636;48.394;15.468;2023-04-16T10:02:12;9.40;99.90
29725;DHT22;16636;48.394;15.468;2023-04-16T10:04:44;9.70;99.90
29725;DHT22;16636;48.394;15.468;2023-04-16T10:07:10;9.80;99.90
29725;DHT22;16636;48.394;15.468;2023-04-16T10:09:37;9.90;99.90
29725;DHT22;16636;48.394;15.468;2023-04-16T10:12:03;10.10;99.90
29725;DHT22;16636;48.394;15.468;2023-04-16T10:14:29;10.20;99.90
29725;DHT22;16636;48.394;15.468;2023-04-16T10:16:55;10.20;99.90
29725;DHT22;16636;48.394;15.468;2023-04-16T10:19:22;10.10;99.90
29725;DHT22;16636;48.394;15.468;2023-04-16T10:21:49;10.40;99.90
29725;DHT22;16636;48.394;15.468;2023-04-16T10:24:15;10.50;99.90
29725;DHT22;16636;48.394;15.468;2023-04-16T10:26:43;10.50;99.90
29725;DHT22;16636;48.394;15.468;2023-04-16T10:29:10;10.40;99.90
29725;DHT22;16636;48.394;15.468;2023-04-16T10:31:36;10.30;99.90
29725;DHT22;16636;48.394;15.468;2023-04-16T10:34:03;10.10;99.90
29725;DHT22;16636;48.394;15.468;2023-04-16T10:36:29;10.00;99.90
29725;DHT22;16636;48.394;15.468;2023-04-16T10:38:56;9.80;99.90
29725;DHT22;16636;48.394;15.468;2023-04-16T10:41:22;9.70;99.90
29725;DHT22;16636;48.394;15.468;2023-04-16T10:43:49;9.70;99.90
29725;DHT22;16636;48.394;15.468;2023-04-16T10:46:22;9.70;99.90
29725;DHT22;16636;48.394;15.468;2023-04-16T10:48:49;9.80;99.90
29725;DHT22;16636;48.394;15.468;2023-04-16T10:51:38;10.00;99.90
29725;DHT22;16636;48.394;15.468;2023-04-16T10:56:42;10.10;99.90
29725;DHT22;16636;48.394;15.468;2023-04-16T10:59:09;10.00;99.90
29725;DHT22;16636;48.394;15.468;2023-04-16T11:01:36;10.00;99.90
29725;DHT22;16636;48.394;15.468;2023-04-16T11:07:20;9.80;99.90
29725;DHT22;16636;48.394;15.468;2023-04-16T11:12:07;9.80;99.90
29725;DHT22;16636;48.394;15.468;2023-04-16T11:14:35;9.70;99.90
29725;DHT22;16636;48.394;15.468;2023-04-16T11:17:02;9.70;99.90
29725;DHT22;16636;48.394;15.468;2023-04-16T11:19:28;9.70;99.90
29725;DHT22;16636;48.394;15.468;2023-04-16T11:21:53;9.70;99.90
29725;DHT22;16636;48.394;15.468;2023-04-16T11:24:20;9.70;99.90
29725;DHT22;16636;48.394;15.468;2023-04-16T11:26:46;9.70;99.90
29725;DHT22;16636;48.394;15.468;2023-04-16T11:29:15;10.00;99.90
29725;DHT22;16636;48.394;15.468;2023-04-16T11:31:41;10.20;99.90
29725;DHT22;16636;48.394;15.468;2023-04-16T11:34:07;10.30;99.90
29725;DHT22;16636;48.394;15.468;2023-04-16T11:36:43;10.30;99.90
29725;DHT22;16636;48.394;15.468;2023-04-16T11:39:09;10.20;99.90
29725;DHT22;16636;48.394;15.468;2023-04-16T11:41:40;10.10;99.90
29725;DHT22;16636;48.394;15.468;2023-04-16T11:44:16;10.00;99.90
29725;DHT22;16636;48.394;15.468;2023-04-16T11:46:42;10.00;99.90
29725;DHT22;16636;48.394;15.468;2023-04-16T11:49:08;9.90;99.90
29725;DHT22;16636;48.394;15.468;2023-04-16T11:51:41;9.90;99.90
29725;DHT22;16636;48.394;15.468;2023-04-16T11:54:07;9.80;99.90
29725;DHT22;16636;48.394;15.468;2023-04-16T11:56:34;9.80;99.90
29725;DHT22;16636;48.394;15.468;2023-04-16T11:59:09;9.80;99.90
29725;DHT22;16636;48.394;15.468;2023-04-16T12:01:36;9.90;99.90
29725;DHT22;16636;48.394;15.468;2023-04-16T12:04:02;9.90;99.90
29725;DHT22;16636;48.394;15.468;2023-04-16T12:06:28;10.00;99.90
29725;DHT22;16636;48.394;15.468;2023-04-16T12:08:54;10.00;99.90
29725;DHT22;16636;48.394;15.468;2023-04-16T12:11:20;10.00;99.90
29725;DHT22;16636;48.394;15.468;2023-04-16T12:14:08;10.10;99.90
29725;DHT22;16636;48.394;15.468;2023-04-16T12:16:33;10.10;99.90
29725;DHT22;16636;48.394;15.468;2023-04-16T12:18:59;10.20;99.90
29725;DHT22;16636;48.394;15.468;2023-04-16T12:21:36;10.30;99.90
29725;DHT22;16636;48.394;15.468;2023-04-16T12:24:01;10.40;99.90
29725;DHT22;16636;48.394;15.468;2023-04-16T12:26:34;10.60;99.90
29725;DHT22;16636;48.394;15.468;2023-04-16T12:29:13;10.90;99.90
29725;DHT22;16636;48.394;15.468;2023-04-16T12:31:39;11.30;99.90
29725;DHT22;16636;48.394;15.468;2023-04-16T12:34:05;11.30;99.90
29725;DHT22;16636;48.394;15.468;2023-04-16T12:36:31;11.30;99.90
29725;DHT22;16636;48.394;15.468;2023-04-16T12:38:56;11.30;99.90
29725;DHT22;16636;48.394;15.468;2023-04-16T12:41:22;11.40;99.90
29725;DHT22;16636;48.394;15.468;2023-04-16T12:43:48;11.30;99.90
29725;DHT22;16636;48.394;15.468;2023-04-16T12:46:14;11.30;99.90
29725;DHT22;16636;48.394;15.468;2023-04-16T12:48:40;11.20;99.90
29725;DHT22;16636;48.394;15.468;2023-04-16T12:51:06;11.20;99.90
29725;DHT22;16636;48.394;15.468;2023-04-16T12:53:32;11.20;99.90
29725;DHT22;16636;48.394;15.468;2023-04-16T12:55:57;11.10;99.90
29725;DHT22;16636;48.394;15.468;2023-04-16T12:58:24;11.00;99.90
29725;DHT22;16636;48.394;15.468;2023-04-16T13:00:50;10.90;99.90
29725;DHT22;16636;48.394;15.468;2023-04-16T13:03:15;10.80;99.90
29725;DHT22;16636;48.394;15.468;2023-04-16T13:05:41;10.80;99.90
29725;DHT22;16636;48.394;15.468;2023-04-16T13:08:07;10.80;99.90
29725;DHT22;16636;48.394;15.468;2023-04-16T13:10:33;10.80;99.90
29725;DHT22;16636;48.394;15.468;2023-04-16T13:13:00;10.90;99.90
29725;DHT22;16636;48.394;15.468;2023-04-16T13:15:25;10.90;99.90
29725;DHT22;16636;48.394;15.468;2023-04-16T13:17:51;11.00;99.90
29725;DHT22;16636;48.394;15.468;2023-04-16T13:20:17;11.10;99.90
29725;DHT22;16636;48.394;15.468;2023-04-16T13:22:43;11.10;99.90
29725;DHT22;16636;48.394;15.468;2023-04-16T13:25:09;11.10;99.90
29725;DHT22;16636;48.394;15.468;2023-04-16T13:27:34;11.10;99.90
29725;DHT22;16636;48.394;15.468;2023-04-16T13:30:00;11.10;99.90
29725;DHT22;16636;48.394;15.468;2023-04-16T13:32:26;11.10;99.90
29725;DHT22;16636;48.394;15.468;2023-04-16T13:34:52;11.10;99.90
29725;DHT22;16636;48.394;15.468;2023-04-16T13:37:18;11.00;99.90
29725;DHT22;16636;48.394;15.468;2023-04-16T13:39:44;11.00;99.90
29725;DHT22;16636;48.394;15.468;2023-04-16T13:42:10;10.90;99.90
29725;DHT22;16636;48.394;15.468;2023-04-16T13:44:35;10.90;99.90
29725;DHT22;16636;48.394;15.468;2023-04-16T13:47:01;10.90;99.90
29725;DHT22;16636;48.394;15.468;2023-04-16T13:49:27;10.90;99.90
29725;DHT22;16636;48.394;15.468;2023-04-16T13:51:53;10.80;99.90
29725;DHT22;16636;48.394;15.468;2023-04-16T13:54:19;10.80;99.90
29725;DHT22;16636;48.394;15.468;2023-04-16T13:56:45;10.80;99.90
29725;DHT22;16636;48.394;15.468;2023-04-16T13:59:10;10.80;99.90
29725;DHT22;16636;48.394;15.468;2023-04-16T14:01:36;10.70;99.90
29725;DHT22;16636;48.394;15.468;2023-04-16T14:04:03;10.70;99.90
29725;DHT22;16636;48.394;15.468;2023-04-16T14:06:31;10.70;99.90
29725;DHT22;16636;48.394;15.468;2023-04-16T14:08:57;10.70;99.90
29725;DHT22;16636;48.394;15.468;2023-04-16T14:11:23;10.70;99.90
29725;DHT22;16636;48.394;15.468;2023-04-16T14:13:49;10.70;99.90
29725;DHT22;16636;48.394;15.468;2023-04-16T14:16:15;10.70;99.90
29725;DHT22;16636;48.394;15.468;2023-04-16T14:18:40;10.80;99.90
29725;DHT22;16636;48.394;15.468;2023-04-16T14:21:07;10.80;99.90
29725;DHT22;16636;48.394;15.468;2023-04-16T14:23:33;10.80;99.90
29725;DHT22;16636;48.394;15.468;2023-04-16T14:25:58;10.90;99.90
29725;DHT22;16636;48.394;15.468;2023-04-16T14:28:25;10.90;99.90
29725;DHT22;16636;48.394;15.468;2023-04-16T14:30:51;11.00;99.90
29725;DHT22;16636;48.394;15.468;2023-04-16T14:33:16;11.10;99.90
29725;DHT22;16636;48.394;15.468;2023-04-16T14:35:42;11.10;99.90
29725;DHT22;16636;48.394;15.468;2023-04-16T14:38:08;11.10;99.90
29725;DHT22;16636;48.394;15.468;2023-04-16T14:40:35;11.10;99.90
29725;DHT22;16636;48.394;15.468;2023-04-16T14:43:01;11.10;99.90
29725;DHT22;16636;48.394;15.468;2023-04-16T14:45:26;11.20;99.90
29725;DHT22;16636;48.394;15.468;2023-04-16T14:47:54;11.20;99.90
29725;DHT22;16636;48.394;15.468;2023-04-16T14:50:20;11.10;99.90
29725;DHT22;16636;48.394;15.468;2023-04-16T14:52:46;11.10;99.90
29725;DHT22;16636;48.394;15.468;2023-04-16T14:55:12;11.10;99.90
29725;DHT22;16636;48.394;15.468;2023-04-16T14:57:38;11.10;99.90
29725;DHT22;16636;48.394;15.468;2023-04-16T15:00:04;11.00;99.90
29725;DHT22;16636;48.394;15.468;2023-04-16T15:02:33;11.00;99.90
29725;DHT22;16636;48.394;15.468;2023-04-16T15:04:59;10.90;99.90
29725;DHT22;16636;48.394;15.468;2023-04-16T15:07:25;10.90;99.90
29725;DHT22;16636;48.394;15.468;2023-04-16T15:09:52;10.90;99.90
29725;DHT22;16636;48.394;15.468;2023-04-16T15:12:17;10.80;99.90
29725;DHT22;16636;48.394;15.468;2023-04-16T15:14:43;10.80;99.90
29725;DHT22;16636;48.394;15.468;2023-04-16T15:17:09;10.80;99.90
29725;DHT22;16636;48.394;15.468;2023-04-16T15:19:35;10.80;99.90
29725;DHT22;16636;48.394;15.468;2023-04-16T15:22:01;10.80;99.90
29725;DHT22;16636;48.394;15.468;2023-04-16T15:24:27;10.70;99.90
29725;DHT22;16636;48.394;15.468;2023-04-16T15:26:52;10.80;99.90
29725;DHT22;16636;48.394;15.468;2023-04-16T15:29:18;10.80;99.90
29725;DHT22;16636;48.394;15.468;2023-04-16T15:31:44;10.80;99.90
29725;DHT22;16636;48.394;15.468;2023-04-16T15:34:10;10.80;99.90